Guilford, New York
Current Conditions -  °F | °C
As of 1:53 PM on Friday 24 Oct 2014 (Local Time) from KBGM Reporting Station
Clear Clear  
Wind Chill: 56°   Ceiling: Unl
Heat Index: 56°   Visibility: 10mi
Dew Point: 41°   Wind: 12mph
Humidity: 57%   Direction: 310°NW
Pressure: 29.87"   Gusts: 23mph
Location:  42.4°N, 75.49°W
Report Text: KBGM 241753Z 31010G20KT 10SM CLR 13/05 A2987 RMK AO2 SLP117 T01330050 10139 20078 58011
Loading
Personal Weather Stations






























Interactive Weather Map
Tropical Storm Tracking
New forecast layout! Learn more

10-Day Weather Forecast

Advertisements
Track Severe Weather on mobile